Appleton, Wisconsin
Current Conditions -  °F | °C
As of 10:45 AM on Wednesday 22 Oct 2014 (Local Time) from KATW Reporting Station
Scattered Clouds Scattered Clouds  
Wind Chill: 44°   Ceiling: Unl
Heat Index: 46°   Visibility: 10mi
Dew Point: 37°   Wind: 5mph
Humidity: 71%   Direction: NA
Pressure: 30.37"   Gusts: NA
Location:  44.26°N, 88.42°W
Report Text: KATW 221545Z VRB04KT 10SM SCT021 08/03 A3037
Loading
Personal Weather Stations






























Interactive Weather Map
Tropical Storm Tracking
New forecast layout! Learn more

10-Day Weather Forecast

Advertisements
Track Severe Weather on mobile